Takuyo Maru — JD3661 — position and weather

sailwx.info

Track history (hours):
 
Tides and Currents Weather Stations Pressure Air Temp Water Temp Dewpoint Dewpoint Depression Visibility Wind Speed Wind Dir Waves Ship Positions

Takuyo Maru

Last reported at 2018-Feb-21 09:25 UTC. Time now 2018-Feb-22 05:26 UTC.
Position N 33°42' E 130°12'.

Length 61 m.

Type: Cargo ship. MMSI: 431005239.

Date/timePositionNaut miles runAvg speedWind from/ knotsBaromVisibWave heightAir tempDewpointWater temp
2018-Feb-21 09:25N 33°42' E 130°12'511.6
2018-Feb-21 08:59N 33°45' E 130°16'611.8
2018-Feb-21 08:27N 33°49' E 130°22'611.8
2018-Feb-21 07:58N 33°53' E 130°27'511.4
2018-Feb-21 07:30N 33°57' E 130°32'611.2
2018-Feb-21 06:58N 33°58' E 130°39'511.3
2018-Feb-21 06:30N 33°58' E 130°45'611.1
2018-Feb-21 06:00N 33°57' E 130°52'4 7.9
2018-Feb-21 05:30N 33°57' E 130°57'510.8
2018-Feb-21 05:00N 33°58' E 131°03'611.5
2018-Feb-21 04:30N 33°55' E 131°09'611.2
2018-Feb-21 04:00N 33°52' E 131°15'611.3
2018-Feb-21 03:29N 33°51' E 131°22'611.5
2018-Feb-21 03:00N 33°50' E 131°29'611.6
2018-Feb-21 02:29N 33°49' E 131°36'5110.8
2018-Feb-20 21:46N 34°00' E 132°36'412.4
2018-Feb-20 21:29N 34°03' E 132°39'9011.6
2018-Feb-20 13:44N 34°26' E 134°24'312.2
2018-Feb-20 13:30N 34°27' E 134°27'612.2
2018-Feb-20 12:58N 34°30' E 134°34'612.2
2018-Feb-20 12:29N 34°32' E 134°41'612.2
2018-Feb-20 11:59N 34°34' E 134°48'511.2
2018-Feb-20 11:30N 34°36' E 134°54'611.5
2018-Feb-20 11:00N 34°38' E 135°01'510.5
2018-Feb-20 10:30N 34°36' E 135°07'611.5
2018-Feb-20 10:00N 34°37' E 135°14'611.0
2018-Feb-20 09:30N 34°38' E 135°20'5 9.2
2018-Feb-20 09:00N 34°42' E 135°24'0 0.0
2018-Feb-20 08:30N 34°42' E 135°24'0 0.0
2018-Feb-20 08:00N 34°42' E 135°24'0 0.0
2018-Feb-20 07:30N 34°42' E 135°24'0 0.0
2018-Feb-20 07:00N 34°42' E 135°24'0 0.0
2018-Feb-20 06:30N 34°42' E 135°24'0 0.0
2018-Feb-20 06:00N 34°42' E 135°24'0 0.0
2018-Feb-20 05:27N 34°42' E 135°24'0 0.1
2018-Feb-20 05:00N 34°42' E 135°24'0 0.0
2018-Feb-20 04:27N 34°42' E 135°24'0 0.0
2018-Feb-20 04:00N 34°42' E 135°24'0 0.0
2018-Feb-20 03:30N 34°42' E 135°24'0 0.0
2018-Feb-20 03:00N 34°42' E 135°24'0 0.0
2018-Feb-20 02:30N 34°42' E 135°24'0 0.0
2018-Feb-20 02:00N 34°42' E 135°24'0 0.0
2018-Feb-20 01:30N 34°42' E 135°24'0 0.0
2018-Feb-20 01:00N 34°42' E 135°24'0 0.0
2018-Feb-19 23:50N 34°42' E 135°24'0 0.0
2018-Feb-19 23:29N 34°42' E 135°24'3 6.7
2018-Feb-19 23:00N 34°39' E 135°21'1 1.1
2018-Feb-19 22:28N 34°39' E 135°21'0 0.0
2018-Feb-19 21:58N 34°39' E 135°21'0 0.0
2018-Feb-19 21:21N 34°39' E 135°21'3 7.2
2018-Feb-19 21:00N 34°37' E 135°18'510.7
2018-Feb-19 20:30N 34°35' E 135°12'611.6
2018-Feb-19 20:00N 34°35' E 135°05'713.3
2018-Feb-19 19:28N 34°36' E 134°57'713.7
2018-Feb-19 19:00N 34°33' E 134°50'611.8
2018-Feb-19 18:28N 34°31' E 134°43'511.4
2018-Feb-19 18:00N 34°29' E 134°37'99 9.8
2018-Feb-19 07:54N 34°05' E 132°40'11 5.1
2018-Feb-19 05:48N 34°13' E 132°31'2 2.0
2018-Feb-19 04:35N 34°15' E 132°33'0 0.0
2018-Feb-19 04:29N 34°15' E 132°33'0 0.0
2018-Feb-19 00:59N 34°15' E 132°33'0 0.0
2018-Feb-18 23:53N 34°15' E 132°33'0 0.0
2018-Feb-18 22:56N 34°15' E 132°33'0 0.0
2018-Feb-18 22:23N 34°15' E 132°33'0 0.0
2018-Feb-18 21:20N 34°15' E 132°33'0 0.0
2018-Feb-18 20:59N 34°15' E 132°33'0 0.0
2018-Feb-18 20:24N 34°15' E 132°33'0 0.0
2018-Feb-18 19:29N 34°15' E 132°33'0 0.0
2018-Feb-18 18:42N 34°15' E 132°33'0 0.0
2018-Feb-18 18:30N 34°15' E 132°33'0 0.0
2018-Feb-18 17:56N 34°15' E 132°33'0 0.0
2018-Feb-18 17:29N 34°15' E 132°33'0 0.0
2018-Feb-18 16:29N 34°15' E 132°33'0 0.0
2018-Feb-18 15:59N 34°15' E 132°33'0 0.0
2018-Feb-18 15:11N 34°15' E 132°33'0 0.0
2018-Feb-18 14:41N 34°15' E 132°33'0 0.0
2018-Feb-18 13:50N 34°15' E 132°33'0 0.0
2018-Feb-18 13:26N 34°15' E 132°33'0 0.0
2018-Feb-18 13:00N 34°15' E 132°33'0 0.0
2018-Feb-18 12:05N 34°15' E 132°33'0 0.0
2018-Feb-18 11:50N 34°15' E 132°33'0 0.0
2018-Feb-18 10:17N 34°15' E 132°33'0 0.0
2018-Feb-18 09:56N 34°15' E 132°33'0 0.0
2018-Feb-18 09:29N 34°15' E 132°33'0 0.0
2018-Feb-18 08:26N 34°15' E 132°33'0 0.0
2018-Feb-18 07:47N 34°15' E 132°33'0 0.0
2018-Feb-18 07:23N 34°15' E 132°33'0 0.0
2018-Feb-18 06:59N 34°15' E 132°33'0 0.1
2018-Feb-18 06:13N 34°14' E 132°33'0 0.1
2018-Feb-18 05:40N 34°15' E 132°33'0 0.0
2018-Feb-18 05:25N 34°15' E 132°33'0 0.0
2018-Feb-18 04:37N 34°15' E 132°33'0 0.0
2018-Feb-18 03:40N 34°15' E 132°33'0 0.0
2018-Feb-18 03:22N 34°15' E 132°33'0 0.0
2018-Feb-18 02:52N 34°15' E 132°33'0 0.0
2018-Feb-18 02:00N 34°15' E 132°33'0 0.0
2018-Feb-18 01:18N 34°15' E 132°33'0 0.0
2018-Feb-18 00:51N 34°15' E 132°33'0 0.0
2018-Feb-17 23:53N 34°15' E 132°33'0 0.0
2018-Feb-17 23:23N 34°15' E 132°33'0 0.0
2018-Feb-17 22:59N 34°15' E 132°33'0 0.4
2018-Feb-17 21:48N 34°14' E 132°32'0 0.0
2018-Feb-17 20:33N 34°14' E 132°32'0 0.0
2018-Feb-17 20:30N 34°14' E 132°32'0 0.0
2018-Feb-17 18:54N 34°14' E 132°32'0 0.0
2018-Feb-17 18:21N 34°14' E 132°32'0 0.0
2018-Feb-17 18:00N 34°14' E 132°32'0 0.0
2018-Feb-17 17:09N 34°14' E 132°32'0 0.0
2018-Feb-17 16:27N 34°14' E 132°32'0 0.0
2018-Feb-17 15:45N 34°14' E 132°32'0 0.0
2018-Feb-17 14:45N 34°14' E 132°32'0 0.0
2018-Feb-17 13:33N 34°14' E 132°32'0 0.0
2018-Feb-17 13:24N 34°14' E 132°32'0 0.0
2018-Feb-17 12:45N 34°14' E 132°32'1 3.1
2018-Feb-17 12:24N 34°13' E 132°32'10 5.7
2018-Feb-17 10:36N 34°04' E 132°35'110.9
2018-Feb-17 10:30N 34°04' E 132°36'19 0.8
2018-Feb-16 10:06N 33°50' E 132°21'212.4
2018-Feb-16 09:57N 33°50' E 132°19'612.1
2018-Feb-16 09:26N 33°50' E 132°12'2211.7
2018-Feb-16 07:35N 33°33' E 131°55'211.6
2018-Feb-16 07:24N 33°31' E 131°54'711.1
2018-Feb-16 06:46N 33°25' E 131°49'411.1
2018-Feb-16 06:22N 33°22' E 131°46'411.3
2018-Feb-16 06:00N 33°19' E 131°42'2 0.1
2018-Feb-15 15:08N 33°19' E 131°40'4 1.2
2018-Feb-15 11:58N 33°22' E 131°41'0 0.0
2018-Feb-15 08:46N 33°22' E 131°41'0 0.2
2018-Feb-15 08:28N 33°22' E 131°41'0 0.0
2018-Feb-15 02:28N 33°22' E 131°41'0 0.0
2018-Feb-14 07:16N 33°22' E 131°41'0 0.0
2018-Feb-14 06:58N 33°22' E 131°41'0 0.0
2018-Feb-13 20:10N 33°22' E 131°41'8 9.8
2018-Feb-13 19:23N 33°27' E 131°48'9 9.7
2018-Feb-13 18:24N 33°36' E 131°45'410.2
2018-Feb-13 17:59N 33°40' E 131°41'510.5
2018-Feb-13 17:30N 33°43' E 131°36'611.1
2018-Feb-13 16:59N 33°45' E 131°30'511.0
2018-Feb-13 16:30N 33°47' E 131°24'611.2
2018-Feb-13 16:00N 33°49' E 131°18'611.8
2018-Feb-13 15:30N 33°52' E 131°11'611.5
2018-Feb-13 15:00N 33°55' E 131°06'611.0
2018-Feb-13 14:30N 33°58' E 131°01'610.7
2018-Feb-13 13:59N 33°55' E 130°56'4 8.7
2018-Feb-13 13:30N 33°57' E 130°51'510.6
2018-Feb-13 13:00N 33°58' E 130°45'611.0
2018-Feb-13 12:30N 33°57' E 130°38'611.1
2018-Feb-13 12:00N 33°56' E 130°32'510.6
2018-Feb-13 11:30N 33°52' E 130°27'611.0
2018-Feb-13 10:59N 33°48' E 130°23'510.7
2018-Feb-13 10:29N 33°44' E 130°18'4 8.7
2018-Feb-13 10:00N 33°40' E 130°17'510.5
2018-Feb-13 09:30N 33°37' E 130°23'1 2.7
2018-Feb-13 09:00N 33°36' E 130°23'0 0.0
2018-Feb-13 08:30N 33°36' E 130°23'0 0.0
2018-Feb-13 08:00N 33°36' E 130°23'0 0.0
2018-Feb-13 07:30N 33°36' E 130°23'0 0.0
2018-Feb-13 07:00N 33°36' E 130°23'0 0.0
2018-Feb-13 06:30N 33°36' E 130°23'0 0.0
2018-Feb-13 05:57N 33°36' E 130°23'0 0.0
2018-Feb-13 05:30N 33°36' E 130°23'0 0.0
2018-Feb-13 05:00N 33°36' E 130°23'0 0.0
2018-Feb-13 04:30N 33°36' E 130°23'2 4.5
2018-Feb-13 04:00N 33°38' E 130°21'6 9.9
2018-Feb-13 03:22N 33°42' E 130°17'410.5
2018-Feb-13 02:59N 33°46' E 130°20'510.2
2018-Feb-13 02:30N 33°49' E 130°23'510.3
2018-Feb-13 02:00N 33°53' E 130°27'5 9.7
2018-Feb-13 01:30N 33°57' E 130°31'4 8.9
2018-Feb-13 01:00N 33°58' E 130°37'5 9.2
2018-Feb-13 00:30N 33°58' E 130°42'5 9.5
2018-Feb-13 00:00N 33°58' E 130°48'510.0
2018-Feb-12 23:30N 33°56' E 130°53'510.3
2018-Feb-12 23:00N 33°58' E 130°58'5 9.0
2018-Feb-12 22:30N 33°57' E 131°04'611.5
2018-Feb-12 21:59N 33°54' E 131°10'1 1.4
2018-Feb-12 21:26N 33°54' E 131°11'0 0.0
2018-Feb-12 20:59N 33°54' E 131°11'0 0.0
2018-Feb-12 20:29N 33°54' E 131°11'0 0.0
2018-Feb-12 19:59N 33°54' E 131°11'0 0.0
2018-Feb-12 19:29N 33°54' E 131°11'0 0.0
2018-Feb-12 18:59N 33°54' E 131°11'0 0.0
2018-Feb-12 18:29N 33°54' E 131°11'0 0.0
2018-Feb-12 17:59N 33°54' E 131°11'0 0.0
2018-Feb-12 17:29N 33°54' E 131°11'0 0.0
2018-Feb-12 16:59N 33°54' E 131°11'0 0.0
2018-Feb-12 16:26N 33°54' E 131°11'0 0.0
2018-Feb-12 15:59N 33°54' E 131°11'0 0.0
2018-Feb-12 15:11N 33°54' E 131°11'0 0.0
2018-Feb-12 14:59N 33°54' E 131°11'0 0.0
2018-Feb-12 14:29N 33°54' E 131°11'0 0.0
2018-Feb-12 13:59N 33°54' E 131°11'0 0.0
2018-Feb-12 13:26N 33°54' E 131°11'0 0.0
2018-Feb-12 12:56N 33°54' E 131°11'0 0.0
2018-Feb-12 12:26N 33°54' E 131°11'0 0.0
2018-Feb-12 11:59N 33°54' E 131°11'0 0.0
2018-Feb-12 11:29N 33°54' E 131°11'0 0.0
2018-Feb-12 10:59N 33°54' E 131°11'0 0.0
2018-Feb-12 10:29N 33°54' E 131°11'0 0.0
2018-Feb-12 09:59N 33°54' E 131°11'0 0.0
2018-Feb-12 09:29N 33°54' E 131°11'0 0.0
2018-Feb-12 08:56N 33°54' E 131°11'0 0.0
2018-Feb-12 08:29N 33°54' E 131°11'0 0.0
2018-Feb-12 07:56N 33°54' E 131°11'0 0.0
2018-Feb-12 07:29N 33°54' E 131°11'0 0.0
2018-Feb-12 06:59N 33°54' E 131°11'0 0.0
2018-Feb-12 06:29N 33°54' E 131°11'0 0.0
2018-Feb-12 05:59N 33°54' E 131°11'0 0.0
2018-Feb-12 05:26N 33°54' E 131°11'0 0.1
2018-Feb-12 04:59N 33°54' E 131°11'0 0.0
2018-Feb-12 04:29N 33°54' E 131°11'0 0.0
2018-Feb-12 03:59N 33°54' E 131°11'3 6.8
2018-Feb-12 03:30N 33°52' E 131°14'5 9.6
2018-Feb-12 03:00N 33°51' E 131°20'5 9.8
2018-Feb-12 02:30N 33°50' E 131°26'510.0
2018-Feb-12 01:59N 33°50' E 131°32'4 9.3
2018-Feb-12 01:30N 33°49' E 131°37'50 9.0
2018-Feb-11 19:59N 33°60' E 132°36'98 9.9
2018-Feb-11 10:08N 34°28' E 134°29'211.3
2018-Feb-11 09:58N 34°28' E 134°31'610.9
2018-Feb-11 09:28N 34°30' E 134°37'  
Track history (hours):
 
Tides and Currents Weather Stations Pressure Air Temp Water Temp Dewpoint Dewpoint Depression Visibility Wind Speed Wind Dir Waves Ship Positions

Takuyo Maru

Last reported at 2018-Feb-21 09:25 UTC. Time now 2018-Feb-22 05:26 UTC.
Position N 33°42' E 130°12'.

Length 61 m.

Type: Cargo ship. MMSI: 431005239.

Date/timePositionNaut miles runAvg speedWind from/ knotsBaromVisibWave heightAir tempDewpointWater temp
2018-Feb-21 09:25N 33°42' E 130°12'511.6
2018-Feb-21 08:59N 33°45' E 130°16'611.8
2018-Feb-21 08:27N 33°49' E 130°22'611.8
2018-Feb-21 07:58N 33°53' E 130°27'511.4
2018-Feb-21 07:30N 33°57' E 130°32'611.2
2018-Feb-21 06:58N 33°58' E 130°39'511.3
2018-Feb-21 06:30N 33°58' E 130°45'611.1
2018-Feb-21 06:00N 33°57' E 130°52'4 7.9
2018-Feb-21 05:30N 33°57' E 130°57'510.8
2018-Feb-21 05:00N 33°58' E 131°03'611.5
2018-Feb-21 04:30N 33°55' E 131°09'611.2
2018-Feb-21 04:00N 33°52' E 131°15'611.3
2018-Feb-21 03:29N 33°51' E 131°22'611.5
2018-Feb-21 03:00N 33°50' E 131°29'611.6
2018-Feb-21 02:29N 33°49' E 131°36'5110.8
2018-Feb-20 21:46N 34°00' E 132°36'412.4
2018-Feb-20 21:29N 34°03' E 132°39'9011.6
2018-Feb-20 13:44N 34°26' E 134°24'312.2
2018-Feb-20 13:30N 34°27' E 134°27'612.2
2018-Feb-20 12:58N 34°30' E 134°34'612.2
2018-Feb-20 12:29N 34°32' E 134°41'612.2
2018-Feb-20 11:59N 34°34' E 134°48'511.2
2018-Feb-20 11:30N 34°36' E 134°54'611.5
2018-Feb-20 11:00N 34°38' E 135°01'510.5
2018-Feb-20 10:30N 34°36' E 135°07'611.5
2018-Feb-20 10:00N 34°37' E 135°14'611.0
2018-Feb-20 09:30N 34°38' E 135°20'5 9.2
2018-Feb-20 09:00N 34°42' E 135°24'0 0.0
2018-Feb-20 08:30N 34°42' E 135°24'0 0.0
2018-Feb-20 08:00N 34°42' E 135°24'0 0.0
2018-Feb-20 07:30N 34°42' E 135°24'0 0.0
2018-Feb-20 07:00N 34°42' E 135°24'0 0.0
2018-Feb-20 06:30N 34°42' E 135°24'0 0.0
2018-Feb-20 06:00N 34°42' E 135°24'0 0.0
2018-Feb-20 05:27N 34°42' E 135°24'0 0.1
2018-Feb-20 05:00N 34°42' E 135°24'0 0.0
2018-Feb-20 04:27N 34°42' E 135°24'0 0.0
2018-Feb-20 04:00N 34°42' E 135°24'0 0.0
2018-Feb-20 03:30N 34°42' E 135°24'0 0.0
2018-Feb-20 03:00N 34°42' E 135°24'0 0.0
2018-Feb-20 02:30N 34°42' E 135°24'0 0.0
2018-Feb-20 02:00N 34°42' E 135°24'0 0.0
2018-Feb-20 01:30N 34°42' E 135°24'0 0.0
2018-Feb-20 01:00N 34°42' E 135°24'0 0.0
2018-Feb-19 23:50N 34°42' E 135°24'0 0.0
2018-Feb-19 23:29N 34°42' E 135°24'3 6.7
2018-Feb-19 23:00N 34°39' E 135°21'1 1.1
2018-Feb-19 22:28N 34°39' E 135°21'0 0.0
2018-Feb-19 21:58N 34°39' E 135°21'0 0.0
2018-Feb-19 21:21N 34°39' E 135°21'3 7.2
2018-Feb-19 21:00N 34°37' E 135°18'510.7
2018-Feb-19 20:30N 34°35' E 135°12'611.6
2018-Feb-19 20:00N 34°35' E 135°05'713.3
2018-Feb-19 19:28N 34°36' E 134°57'713.7
2018-Feb-19 19:00N 34°33' E 134°50'611.8
2018-Feb-19 18:28N 34°31' E 134°43'511.4
2018-Feb-19 18:00N 34°29' E 134°37'99 9.8
2018-Feb-19 07:54N 34°05' E 132°40'11 5.1
2018-Feb-19 05:48N 34°13' E 132°31'2 2.0
2018-Feb-19 04:35N 34°15' E 132°33'0 0.0
2018-Feb-19 04:29N 34°15' E 132°33'0 0.0
2018-Feb-19 00:59N 34°15' E 132°33'0 0.0
2018-Feb-18 23:53N 34°15' E 132°33'0 0.0
2018-Feb-18 22:56N 34°15' E 132°33'0 0.0
2018-Feb-18 22:23N 34°15' E 132°33'0 0.0
2018-Feb-18 21:20N 34°15' E 132°33'0 0.0
2018-Feb-18 20:59N 34°15' E 132°33'0 0.0
2018-Feb-18 20:24N 34°15' E 132°33'0 0.0
2018-Feb-18 19:29N 34°15' E 132°33'0 0.0
2018-Feb-18 18:42N 34°15' E 132°33'0 0.0
2018-Feb-18 18:30N 34°15' E 132°33'0 0.0
2018-Feb-18 17:56N 34°15' E 132°33'0 0.0
2018-Feb-18 17:29N 34°15' E 132°33'0 0.0
2018-Feb-18 16:29N 34°15' E 132°33'0 0.0
2018-Feb-18 15:59N 34°15' E 132°33'0 0.0
2018-Feb-18 15:11N 34°15' E 132°33'0 0.0
2018-Feb-18 14:41N 34°15' E 132°33'0 0.0
2018-Feb-18 13:50N 34°15' E 132°33'0 0.0
2018-Feb-18 13:26N 34°15' E 132°33'0 0.0
2018-Feb-18 13:00N 34°15' E 132°33'0 0.0
2018-Feb-18 12:05N 34°15' E 132°33'0 0.0
2018-Feb-18 11:50N 34°15' E 132°33'0 0.0
2018-Feb-18 10:17N 34°15' E 132°33'0 0.0
2018-Feb-18 09:56N 34°15' E 132°33'0 0.0
2018-Feb-18 09:29N 34°15' E 132°33'0 0.0
2018-Feb-18 08:26N 34°15' E 132°33'0 0.0
2018-Feb-18 07:47N 34°15' E 132°33'0 0.0
2018-Feb-18 07:23N 34°15' E 132°33'0 0.0
2018-Feb-18 06:59N 34°15' E 132°33'0 0.1
2018-Feb-18 06:13N 34°14' E 132°33'0 0.1
2018-Feb-18 05:40N 34°15' E 132°33'0 0.0
2018-Feb-18 05:25N 34°15' E 132°33'0 0.0
2018-Feb-18 04:37N 34°15' E 132°33'0 0.0
2018-Feb-18 03:40N 34°15' E 132°33'0 0.0
2018-Feb-18 03:22N 34°15' E 132°33'0 0.0
2018-Feb-18 02:52N 34°15' E 132°33'0 0.0
2018-Feb-18 02:00N 34°15' E 132°33'0 0.0
2018-Feb-18 01:18N 34°15' E 132°33'0 0.0
2018-Feb-18 00:51N 34°15' E 132°33'0 0.0
2018-Feb-17 23:53N 34°15' E 132°33'0 0.0
2018-Feb-17 23:23N 34°15' E 132°33'0 0.0
2018-Feb-17 22:59N 34°15' E 132°33'0 0.4
2018-Feb-17 21:48N 34°14' E 132°32'0 0.0
2018-Feb-17 20:33N 34°14' E 132°32'0 0.0
2018-Feb-17 20:30N 34°14' E 132°32'0 0.0
2018-Feb-17 18:54N 34°14' E 132°32'0 0.0
2018-Feb-17 18:21N 34°14' E 132°32'0 0.0
2018-Feb-17 18:00N 34°14' E 132°32'0 0.0
2018-Feb-17 17:09N 34°14' E 132°32'0 0.0
2018-Feb-17 16:27N 34°14' E 132°32'0 0.0
2018-Feb-17 15:45N 34°14' E 132°32'0 0.0
2018-Feb-17 14:45N 34°14' E 132°32'0 0.0
2018-Feb-17 13:33N 34°14' E 132°32'0 0.0
2018-Feb-17 13:24N 34°14' E 132°32'0 0.0
2018-Feb-17 12:45N 34°14' E 132°32'1 3.1
2018-Feb-17 12:24N 34°13' E 132°32'10 5.7
2018-Feb-17 10:36N 34°04' E 132°35'110.9
2018-Feb-17 10:30N 34°04' E 132°36'19 0.8
2018-Feb-16 10:06N 33°50' E 132°21'212.4
2018-Feb-16 09:57N 33°50' E 132°19'612.1
2018-Feb-16 09:26N 33°50' E 132°12'2211.7
2018-Feb-16 07:35N 33°33' E 131°55'211.6
2018-Feb-16 07:24N 33°31' E 131°54'711.1
2018-Feb-16 06:46N 33°25' E 131°49'411.1
2018-Feb-16 06:22N 33°22' E 131°46'411.3
2018-Feb-16 06:00N 33°19' E 131°42'2 0.1
2018-Feb-15 15:08N 33°19' E 131°40'4 1.2
2018-Feb-15 11:58N 33°22' E 131°41'0 0.0
2018-Feb-15 08:46N 33°22' E 131°41'0 0.2
2018-Feb-15 08:28N 33°22' E 131°41'0 0.0
2018-Feb-15 02:28N 33°22' E 131°41'0 0.0
2018-Feb-14 07:16N 33°22' E 131°41'0 0.0
2018-Feb-14 06:58N 33°22' E 131°41'0 0.0
2018-Feb-13 20:10N 33°22' E 131°41'8 9.8
2018-Feb-13 19:23N 33°27' E 131°48'9 9.7
2018-Feb-13 18:24N 33°36' E 131°45'410.2
2018-Feb-13 17:59N 33°40' E 131°41'510.5
2018-Feb-13 17:30N 33°43' E 131°36'611.1
2018-Feb-13 16:59N 33°45' E 131°30'511.0
2018-Feb-13 16:30N 33°47' E 131°24'611.2
2018-Feb-13 16:00N 33°49' E 131°18'611.8
2018-Feb-13 15:30N 33°52' E 131°11'611.5
2018-Feb-13 15:00N 33°55' E 131°06'611.0
2018-Feb-13 14:30N 33°58' E 131°01'610.7
2018-Feb-13 13:59N 33°55' E 130°56'4 8.7
2018-Feb-13 13:30N 33°57' E 130°51'510.6
2018-Feb-13 13:00N 33°58' E 130°45'611.0
2018-Feb-13 12:30N 33°57' E 130°38'611.1
2018-Feb-13 12:00N 33°56' E 130°32'510.6
2018-Feb-13 11:30N 33°52' E 130°27'611.0
2018-Feb-13 10:59N 33°48' E 130°23'510.7
2018-Feb-13 10:29N 33°44' E 130°18'4 8.7
2018-Feb-13 10:00N 33°40' E 130°17'510.5
2018-Feb-13 09:30N 33°37' E 130°23'1 2.7
2018-Feb-13 09:00N 33°36' E 130°23'0 0.0
2018-Feb-13 08:30N 33°36' E 130°23'0 0.0
2018-Feb-13 08:00N 33°36' E 130°23'0 0.0
2018-Feb-13 07:30N 33°36' E 130°23'0 0.0
2018-Feb-13 07:00N 33°36' E 130°23'0 0.0
2018-Feb-13 06:30N 33°36' E 130°23'0 0.0
2018-Feb-13 05:57N 33°36' E 130°23'0 0.0
2018-Feb-13 05:30N 33°36' E 130°23'0 0.0
2018-Feb-13 05:00N 33°36' E 130°23'0 0.0
2018-Feb-13 04:30N 33°36' E 130°23'2 4.5
2018-Feb-13 04:00N 33°38' E 130°21'6 9.9
2018-Feb-13 03:22N 33°42' E 130°17'410.5
2018-Feb-13 02:59N 33°46' E 130°20'510.2
2018-Feb-13 02:30N 33°49' E 130°23'510.3
2018-Feb-13 02:00N 33°53' E 130°27'5 9.7
2018-Feb-13 01:30N 33°57' E 130°31'4 8.9
2018-Feb-13 01:00N 33°58' E 130°37'5 9.2
2018-Feb-13 00:30N 33°58' E 130°42'5 9.5
2018-Feb-13 00:00N 33°58' E 130°48'510.0
2018-Feb-12 23:30N 33°56' E 130°53'510.3
2018-Feb-12 23:00N 33°58' E 130°58'5 9.0
2018-Feb-12 22:30N 33°57' E 131°04'611.5
2018-Feb-12 21:59N 33°54' E 131°10'1 1.4
2018-Feb-12 21:26N 33°54' E 131°11'0 0.0
2018-Feb-12 20:59N 33°54' E 131°11'0 0.0
2018-Feb-12 20:29N 33°54' E 131°11'0 0.0
2018-Feb-12 19:59N 33°54' E 131°11'0 0.0
2018-Feb-12 19:29N 33°54' E 131°11'0 0.0
2018-Feb-12 18:59N 33°54' E 131°11'0 0.0
2018-Feb-12 18:29N 33°54' E 131°11'0 0.0
2018-Feb-12 17:59N 33°54' E 131°11'0 0.0
2018-Feb-12 17:29N 33°54' E 131°11'0 0.0
2018-Feb-12 16:59N 33°54' E 131°11'0 0.0
2018-Feb-12 16:26N 33°54' E 131°11'0 0.0
2018-Feb-12 15:59N 33°54' E 131°11'0 0.0
2018-Feb-12 15:11N 33°54' E 131°11'0 0.0
2018-Feb-12 14:59N 33°54' E 131°11'0 0.0
2018-Feb-12 14:29N 33°54' E 131°11'0 0.0
2018-Feb-12 13:59N 33°54' E 131°11'0 0.0
2018-Feb-12 13:26N 33°54' E 131°11'0 0.0
2018-Feb-12 12:56N 33°54' E 131°11'0 0.0
2018-Feb-12 12:26N 33°54' E 131°11'0 0.0
2018-Feb-12 11:59N 33°54' E 131°11'0 0.0
2018-Feb-12 11:29N 33°54' E 131°11'0 0.0
2018-Feb-12 10:59N 33°54' E 131°11'0 0.0
2018-Feb-12 10:29N 33°54' E 131°11'0 0.0
2018-Feb-12 09:59N 33°54' E 131°11'0 0.0
2018-Feb-12 09:29N 33°54' E 131°11'0 0.0
2018-Feb-12 08:56N 33°54' E 131°11'0 0.0
2018-Feb-12 08:29N 33°54' E 131°11'0 0.0
2018-Feb-12 07:56N 33°54' E 131°11'0 0.0
2018-Feb-12 07:29N 33°54' E 131°11'0 0.0
2018-Feb-12 06:59N 33°54' E 131°11'0 0.0
2018-Feb-12 06:29N 33°54' E 131°11'0 0.0
2018-Feb-12 05:59N 33°54' E 131°11'0 0.0
2018-Feb-12 05:26N 33°54' E 131°11'0 0.1
2018-Feb-12 04:59N 33°54' E 131°11'0 0.0
2018-Feb-12 04:29N 33°54' E 131°11'0 0.0
2018-Feb-12 03:59N 33°54' E 131°11'3 6.8
2018-Feb-12 03:30N 33°52' E 131°14'5 9.6
2018-Feb-12 03:00N 33°51' E 131°20'5 9.8
2018-Feb-12 02:30N 33°50' E 131°26'510.0
2018-Feb-12 01:59N 33°50' E 131°32'4 9.3
2018-Feb-12 01:30N 33°49' E 131°37'50 9.0
2018-Feb-11 19:59N 33°60' E 132°36'98 9.9
2018-Feb-11 10:08N 34°28' E 134°29'211.3
2018-Feb-11 09:58N 34°28' E 134°31'610.9
2018-Feb-11 09:28N 34°30' E 134°37'  

Dump ship's entire track history